sensor_id;sensor_type;location;lat;lon;timestamp;P1;durP1;ratioP1;P2;durP2;ratioP2
65684;SDS011;52405;50.844;-1.062;2022-08-25T00:01:31;2.28;;;1.33;;
65684;SDS011;52405;50.844;-1.062;2022-08-25T00:04:00;2.28;;;1.52;;
65684;SDS011;52405;50.844;-1.062;2022-08-25T00:06:26;1.98;;;1.60;;
65684;SDS011;52405;50.844;-1.062;2022-08-25T00:08:52;2.92;;;1.88;;
65684;SDS011;52405;50.844;-1.062;2022-08-25T00:11:21;2.45;;;1.60;;
65684;SDS011;52405;50.844;-1.062;2022-08-25T00:13:50;2.35;;;1.85;;
65684;SDS011;52405;50.844;-1.062;2022-08-25T00:16:19;2.35;;;1.30;;
65684;SDS011;52405;50.844;-1.062;2022-08-25T00:18:47;2.45;;;1.40;;
65684;SDS011;52405;50.844;-1.062;2022-08-25T00:21:18;2.83;;;1.20;;
65684;SDS011;52405;50.844;-1.062;2022-08-25T00:23:44;3.40;;;1.75;;
65684;SDS011;52405;50.844;-1.062;2022-08-25T00:26:10;2.97;;;1.13;;
65684;SDS011;52405;50.844;-1.062;2022-08-25T00:28:37;2.75;;;1.35;;
65684;SDS011;52405;50.844;-1.062;2022-08-25T00:31:04;5.05;;;2.25;;
65684;SDS011;52405;50.844;-1.062;2022-08-25T00:33:31;2.20;;;1.55;;
65684;SDS011;52405;50.844;-1.062;2022-08-25T00:35:57;1.67;;;1.20;;
65684;SDS011;52405;50.844;-1.062;2022-08-25T00:38:24;1.95;;;1.55;;
65684;SDS011;52405;50.844;-1.062;2022-08-25T00:40:50;3.35;;;1.50;;
65684;SDS011;52405;50.844;-1.062;2022-08-25T00:46:15;3.20;;;1.63;;
65684;SDS011;52405;50.844;-1.062;2022-08-25T00:48:43;2.08;;;1.33;;
65684;SDS011;52405;50.844;-1.062;2022-08-25T00:51:12;3.78;;;1.50;;
65684;SDS011;52405;50.844;-1.062;2022-08-25T00:53:40;4.22;;;1.20;;
65684;SDS011;52405;50.844;-1.062;2022-08-25T00:56:07;2.70;;;1.35;;
65684;SDS011;52405;50.844;-1.062;2022-08-25T00:58:33;1.90;;;1.35;;
65684;SDS011;52405;50.844;-1.062;2022-08-25T01:00:59;1.42;;;1.15;;
65684;SDS011;52405;50.844;-1.062;2022-08-25T01:03:27;2.70;;;1.20;;
65684;SDS011;52405;50.844;-1.062;2022-08-25T01:05:54;1.92;;;1.33;;
65684;SDS011;52405;50.844;-1.062;2022-08-25T01:08:21;1.95;;;1.10;;
65684;SDS011;52405;50.844;-1.062;2022-08-25T01:10:52;4.18;;;1.30;;
65684;SDS011;52405;50.844;-1.062;2022-08-25T01:13:23;2.47;;;0.98;;
65684;SDS011;52405;50.844;-1.062;2022-08-25T01:15:53;2.50;;;1.53;;
65684;SDS011;52405;50.844;-1.062;2022-08-25T01:18:20;2.60;;;0.80;;
65684;SDS011;52405;50.844;-1.062;2022-08-25T01:20:48;3.78;;;0.95;;
65684;SDS011;52405;50.844;-1.062;2022-08-25T01:23:14;1.60;;;0.90;;
65684;SDS011;52405;50.844;-1.062;2022-08-25T01:25:52;1.83;;;1.10;;
65684;SDS011;52405;50.844;-1.062;2022-08-25T01:28:25;1.77;;;0.90;;
65684;SDS011;52405;50.844;-1.062;2022-08-25T01:30:51;1.58;;;1.05;;
65684;SDS011;52405;50.844;-1.062;2022-08-25T01:33:17;2.88;;;1.20;;
65684;SDS011;52405;50.844;-1.062;2022-08-25T01:35:43;1.95;;;1.35;;
65684;SDS011;52405;50.844;-1.062;2022-08-25T01:38:09;4.40;;;1.50;;
65684;SDS011;52405;50.844;-1.062;2022-08-25T01:40:35;2.28;;;1.35;;
65684;SDS011;52405;50.844;-1.062;2022-08-25T01:45:36;1.70;;;1.60;;
65684;SDS011;52405;50.844;-1.062;2022-08-25T01:48:03;1.65;;;1.20;;
65684;SDS011;52405;50.844;-1.062;2022-08-25T01:50:30;5.20;;;1.65;;
65684;SDS011;52405;50.844;-1.062;2022-08-25T01:53:06;3.72;;;1.85;;
65684;SDS011;52405;50.844;-1.062;2022-08-25T01:55:38;3.10;;;1.83;;
65684;SDS011;52405;50.844;-1.062;2022-08-25T01:58:24;4.22;;;2.00;;
65684;SDS011;52405;50.844;-1.062;2022-08-25T02:00:52;4.60;;;1.70;;
65684;SDS011;52405;50.844;-1.062;2022-08-25T02:03:20;3.13;;;1.92;;
65684;SDS011;52405;50.844;-1.062;2022-08-25T02:05:46;3.00;;;1.88;;
65684;SDS011;52405;50.844;-1.062;2022-08-25T02:08:13;3.25;;;1.73;;
65684;SDS011;52405;50.844;-1.062;2022-08-25T02:10:39;2.97;;;1.73;;
65684;SDS011;52405;50.844;-1.062;2022-08-25T02:13:05;2.70;;;2.03;;
65684;SDS011;52405;50.844;-1.062;2022-08-25T02:15:31;3.38;;;1.85;;
65684;SDS011;52405;50.844;-1.062;2022-08-25T02:17:57;3.70;;;1.85;;
65684;SDS011;52405;50.844;-1.062;2022-08-25T02:20:23;2.33;;;1.92;;
65684;SDS011;52405;50.844;-1.062;2022-08-25T02:22:50;2.92;;;2.20;;
65684;SDS011;52405;50.844;-1.062;2022-08-25T02:25:16;3.22;;;2.25;;
65684;SDS011;52405;50.844;-1.062;2022-08-25T02:27:43;3.75;;;2.15;;
65684;SDS011;52405;50.844;-1.062;2022-08-25T02:30:10;2.65;;;1.90;;
65684;SDS011;52405;50.844;-1.062;2022-08-25T02:32:37;3.80;;;1.88;;
65684;SDS011;52405;50.844;-1.062;2022-08-25T02:35:03;3.90;;;2.45;;
65684;SDS011;52405;50.844;-1.062;2022-08-25T02:37:30;9.82;;;2.72;;
65684;SDS011;52405;50.844;-1.062;2022-08-25T02:39:56;7.57;;;2.40;;
65684;SDS011;52405;50.844;-1.062;2022-08-25T02:42:21;4.43;;;2.40;;
65684;SDS011;52405;50.844;-1.062;2022-08-25T02:44:48;3.45;;;2.70;;
65684;SDS011;52405;50.844;-1.062;2022-08-25T02:47:14;2.90;;;2.40;;
65684;SDS011;52405;50.844;-1.062;2022-08-25T02:49:40;11.35;;;3.15;;
65684;SDS011;52405;50.844;-1.062;2022-08-25T02:52:05;7.60;;;3.20;;
65684;SDS011;52405;50.844;-1.062;2022-08-25T02:54:31;4.82;;;2.40;;
65684;SDS011;52405;50.844;-1.062;2022-08-25T02:56:56;3.90;;;2.60;;
65684;SDS011;52405;50.844;-1.062;2022-08-25T02:59:22;4.00;;;2.75;;
65684;SDS011;52405;50.844;-1.062;2022-08-25T03:01:47;5.07;;;2.60;;
65684;SDS011;52405;50.844;-1.062;2022-08-25T03:04:13;4.00;;;2.70;;
65684;SDS011;52405;50.844;-1.062;2022-08-25T03:06:38;4.95;;;3.03;;
65684;SDS011;52405;50.844;-1.062;2022-08-25T03:09:05;4.47;;;2.75;;
65684;SDS011;52405;50.844;-1.062;2022-08-25T03:11:30;5.80;;;3.38;;
65684;SDS011;52405;50.844;-1.062;2022-08-25T03:13:56;5.78;;;2.55;;
65684;SDS011;52405;50.844;-1.062;2022-08-25T03:16:22;3.85;;;2.85;;
65684;SDS011;52405;50.844;-1.062;2022-08-25T03:18:48;5.07;;;3.00;;
65684;SDS011;52405;50.844;-1.062;2022-08-25T03:21:14;3.47;;;2.80;;
65684;SDS011;52405;50.844;-1.062;2022-08-25T03:23:40;3.88;;;3.40;;
65684;SDS011;52405;50.844;-1.062;2022-08-25T03:26:06;3.25;;;2.55;;
65684;SDS011;52405;50.844;-1.062;2022-08-25T03:28:51;3.33;;;2.80;;
65684;SDS011;52405;50.844;-1.062;2022-08-25T03:31:19;3.13;;;2.78;;
65684;SDS011;52405;50.844;-1.062;2022-08-25T03:33:46;3.15;;;2.25;;
65684;SDS011;52405;50.844;-1.062;2022-08-25T03:36:13;5.20;;;2.47;;
65684;SDS011;52405;50.844;-1.062;2022-08-25T03:38:39;4.50;;;2.90;;
65684;SDS011;52405;50.844;-1.062;2022-08-25T03:41:15;4.20;;;2.28;;
65684;SDS011;52405;50.844;-1.062;2022-08-25T03:43:47;4.68;;;2.30;;
65684;SDS011;52405;50.844;-1.062;2022-08-25T03:46:20;2.63;;;1.75;;
65684;SDS011;52405;50.844;-1.062;2022-08-25T03:48:48;5.50;;;2.30;;
65684;SDS011;52405;50.844;-1.062;2022-08-25T03:51:33;2.80;;;1.67;;
65684;SDS011;52405;50.844;-1.062;2022-08-25T03:54:00;5.25;;;1.90;;
65684;SDS011;52405;50.844;-1.062;2022-08-25T03:56:27;2.72;;;2.05;;
65684;SDS011;52405;50.844;-1.062;2022-08-25T03:58:54;3.28;;;2.60;;
65684;SDS011;52405;50.844;-1.062;2022-08-25T04:01:20;5.18;;;2.72;;
65684;SDS011;52405;50.844;-1.062;2022-08-25T04:03:46;3.03;;;2.28;;
65684;SDS011;52405;50.844;-1.062;2022-08-25T04:06:12;5.07;;;2.47;;
65684;SDS011;52405;50.844;-1.062;2022-08-25T04:08:39;4.53;;;2.63;;
65684;SDS011;52405;50.844;-1.062;2022-08-25T04:11:06;4.35;;;2.80;;
65684;SDS011;52405;50.844;-1.062;2022-08-25T04:13:37;3.83;;;2.60;;
65684;SDS011;52405;50.844;-1.062;2022-08-25T04:16:08;4.47;;;2.60;;
65684;SDS011;52405;50.844;-1.062;2022-08-25T04:18:39;5.28;;;2.40;;
65684;SDS011;52405;50.844;-1.062;2022-08-25T04:21:06;3.17;;;2.38;;
65684;SDS011;52405;50.844;-1.062;2022-08-25T04:23:38;8.10;;;3.15;;
65684;SDS011;52405;50.844;-1.062;2022-08-25T04:26:14;6.95;;;3.20;;
65684;SDS011;52405;50.844;-1.062;2022-08-25T04:42:32;7.50;;;4.03;;
65684;SDS011;52405;50.844;-1.062;2022-08-25T04:44:58;7.93;;;4.07;;
65684;SDS011;52405;50.844;-1.062;2022-08-25T04:47:26;7.00;;;3.65;;
65684;SDS011;52405;50.844;-1.062;2022-08-25T04:49:52;11.70;;;4.00;;
65684;SDS011;52405;50.844;-1.062;2022-08-25T04:52:18;9.50;;;4.78;;
65684;SDS011;52405;50.844;-1.062;2022-08-25T04:54:44;9.90;;;4.47;;
65684;SDS011;52405;50.844;-1.062;2022-08-25T04:57:10;13.32;;;4.22;;
65684;SDS011;52405;50.844;-1.062;2022-08-25T04:59:36;5.47;;;4.20;;
65684;SDS011;52405;50.844;-1.062;2022-08-25T05:02:02;7.25;;;4.75;;
65684;SDS011;52405;50.844;-1.062;2022-08-25T05:04:30;8.18;;;3.88;;
65684;SDS011;52405;50.844;-1.062;2022-08-25T05:06:56;5.18;;;3.45;;
65684;SDS011;52405;50.844;-1.062;2022-08-25T05:09:22;5.05;;;3.55;;
65684;SDS011;52405;50.844;-1.062;2022-08-25T05:11:48;4.97;;;3.72;;
65684;SDS011;52405;50.844;-1.062;2022-08-25T05:14:14;7.25;;;3.47;;
65684;SDS011;52405;50.844;-1.062;2022-08-25T05:16:42;11.32;;;4.70;;
65684;SDS011;52405;50.844;-1.062;2022-08-25T05:19:08;5.60;;;3.72;;
65684;SDS011;52405;50.844;-1.062;2022-08-25T05:21:34;8.57;;;5.00;;
65684;SDS011;52405;50.844;-1.062;2022-08-25T05:23:59;6.90;;;4.38;;
65684;SDS011;52405;50.844;-1.062;2022-08-25T05:26:26;11.35;;;4.53;;
65684;SDS011;52405;50.844;-1.062;2022-08-25T05:28:54;10.43;;;4.72;;
65684;SDS011;52405;50.844;-1.062;2022-08-25T05:31:21;11.57;;;4.95;;
65684;SDS011;52405;50.844;-1.062;2022-08-25T05:33:48;10.45;;;5.03;;
65684;SDS011;52405;50.844;-1.062;2022-08-25T05:36:14;9.20;;;4.57;;
65684;SDS011;52405;50.844;-1.062;2022-08-25T05:38:41;11.18;;;5.97;;
65684;SDS011;52405;50.844;-1.062;2022-08-25T05:41:08;7.28;;;4.28;;
65684;SDS011;52405;50.844;-1.062;2022-08-25T05:43:36;15.23;;;5.55;;
65684;SDS011;52405;50.844;-1.062;2022-08-25T05:46:03;7.05;;;4.55;;
65684;SDS011;52405;50.844;-1.062;2022-08-25T05:48:29;6.95;;;4.63;;
65684;SDS011;52405;50.844;-1.062;2022-08-25T05:50:56;6.38;;;4.47;;
65684;SDS011;52405;50.844;-1.062;2022-08-25T05:53:24;7.88;;;4.55;;
65684;SDS011;52405;50.844;-1.062;2022-08-25T05:55:51;8.77;;;4.65;;
65684;SDS011;52405;50.844;-1.062;2022-08-25T05:58:18;13.13;;;6.97;;
65684;SDS011;52405;50.844;-1.062;2022-08-25T06:00:44;14.07;;;5.93;;
65684;SDS011;52405;50.844;-1.062;2022-08-25T06:03:10;7.45;;;4.60;;
65684;SDS011;52405;50.844;-1.062;2022-08-25T06:05:35;9.13;;;5.40;;
65684;SDS011;52405;50.844;-1.062;2022-08-25T06:08:01;9.27;;;5.35;;
65684;SDS011;52405;50.844;-1.062;2022-08-25T06:10:26;11.35;;;4.55;;
65684;SDS011;52405;50.844;-1.062;2022-08-25T06:12:52;13.95;;;5.78;;
65684;SDS011;52405;50.844;-1.062;2022-08-25T06:15:19;9.10;;;5.13;;
65684;SDS011;52405;50.844;-1.062;2022-08-25T06:17:47;9.43;;;5.38;;
65684;SDS011;52405;50.844;-1.062;2022-08-25T06:20:22;13.85;;;5.53;;
65684;SDS011;52405;50.844;-1.062;2022-08-25T06:22:50;7.75;;;5.07;;
65684;SDS011;52405;50.844;-1.062;2022-08-25T06:25:17;8.75;;;5.60;;
65684;SDS011;52405;50.844;-1.062;2022-08-25T06:27:45;15.55;;;5.75;;
65684;SDS011;52405;50.844;-1.062;2022-08-25T06:30:12;13.95;;;6.78;;
65684;SDS011;52405;50.844;-1.062;2022-08-25T06:32:40;17.38;;;7.13;;
65684;SDS011;52405;50.844;-1.062;2022-08-25T06:35:08;13.23;;;7.07;;
65684;SDS011;52405;50.844;-1.062;2022-08-25T06:37:36;9.70;;;6.13;;
65684;SDS011;52405;50.844;-1.062;2022-08-25T06:40:03;11.45;;;6.40;;
65684;SDS011;52405;50.844;-1.062;2022-08-25T06:42:30;11.18;;;6.35;;
65684;SDS011;52405;50.844;-1.062;2022-08-25T06:44:55;10.30;;;5.90;;
65684;SDS011;52405;50.844;-1.062;2022-08-25T06:47:21;10.40;;;5.57;;
65684;SDS011;52405;50.844;-1.062;2022-08-25T06:49:46;7.20;;;5.30;;
65684;SDS011;52405;50.844;-1.062;2022-08-25T06:52:12;7.88;;;5.47;;
65684;SDS011;52405;50.844;-1.062;2022-08-25T06:54:39;9.48;;;5.90;;
65684;SDS011;52405;50.844;-1.062;2022-08-25T06:57:05;9.02;;;5.95;;
65684;SDS011;52405;50.844;-1.062;2022-08-25T06:59:32;9.98;;;5.78;;
65684;SDS011;52405;50.844;-1.062;2022-08-25T07:01:59;9.07;;;5.82;;
65684;SDS011;52405;50.844;-1.062;2022-08-25T07:04:25;10.52;;;5.25;;
65684;SDS011;52405;50.844;-1.062;2022-08-25T07:06:50;8.88;;;5.38;;
65684;SDS011;52405;50.844;-1.062;2022-08-25T07:09:16;9.38;;;5.15;;
65684;SDS011;52405;50.844;-1.062;2022-08-25T07:11:42;7.90;;;5.25;;
65684;SDS011;52405;50.844;-1.062;2022-08-25T07:14:10;8.15;;;5.93;;
65684;SDS011;52405;50.844;-1.062;2022-08-25T07:16:37;9.88;;;5.80;;
65684;SDS011;52405;50.844;-1.062;2022-08-25T07:19:03;8.85;;;5.90;;
65684;SDS011;52405;50.844;-1.062;2022-08-25T07:21:29;8.50;;;5.15;;
65684;SDS011;52405;50.844;-1.062;2022-08-25T07:23:57;5.63;;;4.03;;
65684;SDS011;52405;50.844;-1.062;2022-08-25T07:26:26;5.53;;;4.38;;
65684;SDS011;52405;50.844;-1.062;2022-08-25T07:28:54;5.13;;;3.70;;
65684;SDS011;52405;50.844;-1.062;2022-08-25T07:31:21;6.07;;;3.90;;
65684;SDS011;52405;50.844;-1.062;2022-08-25T07:33:46;5.38;;;3.80;;
65684;SDS011;52405;50.844;-1.062;2022-08-25T07:36:31;9.80;;;2.92;;
65684;SDS011;52405;50.844;-1.062;2022-08-25T07:38:57;4.53;;;2.97;;
65684;SDS011;52405;50.844;-1.062;2022-08-25T07:41:24;3.90;;;3.00;;
65684;SDS011;52405;50.844;-1.062;2022-08-25T07:43:50;6.20;;;3.10;;
65684;SDS011;52405;50.844;-1.062;2022-08-25T07:46:16;4.70;;;2.85;;
65684;SDS011;52405;50.844;-1.062;2022-08-25T07:48:42;2.88;;;2.38;;
65684;SDS011;52405;50.844;-1.062;2022-08-25T07:51:09;16.95;;;3.03;;
65684;SDS011;52405;50.844;-1.062;2022-08-25T07:53:38;3.53;;;2.63;;
65684;SDS011;52405;50.844;-1.062;2022-08-25T07:56:08;4.03;;;2.97;;
65684;SDS011;52405;50.844;-1.062;2022-08-25T07:58:35;5.55;;;2.65;;
65684;SDS011;52405;50.844;-1.062;2022-08-25T08:01:00;2.65;;;2.03;;
65684;SDS011;52405;50.844;-1.062;2022-08-25T08:03:26;4.20;;;2.03;;
65684;SDS011;52405;50.844;-1.062;2022-08-25T08:05:53;3.55;;;2.13;;
65684;SDS011;52405;50.844;-1.062;2022-08-25T08:08:20;3.72;;;1.70;;
65684;SDS011;52405;50.844;-1.062;2022-08-25T08:10:46;3.83;;;2.00;;
65684;SDS011;52405;50.844;-1.062;2022-08-25T08:13:12;3.70;;;2.00;;
65684;SDS011;52405;50.844;-1.062;2022-08-25T08:15:40;4.38;;;2.40;;
65684;SDS011;52405;50.844;-1.062;2022-08-25T08:18:07;4.53;;;2.05;;
65684;SDS011;52405;50.844;-1.062;2022-08-25T08:20:33;3.80;;;2.38;;
65684;SDS011;52405;50.844;-1.062;2022-08-25T08:22:59;3.35;;;2.10;;
65684;SDS011;52405;50.844;-1.062;2022-08-25T08:25:24;5.18;;;2.65;;
65684;SDS011;52405;50.844;-1.062;2022-08-25T08:27:50;4.20;;;2.22;;
65684;SDS011;52405;50.844;-1.062;2022-08-25T08:30:16;3.72;;;2.70;;
65684;SDS011;52405;50.844;-1.062;2022-08-25T08:32:42;4.05;;;2.90;;
65684;SDS011;52405;50.844;-1.062;2022-08-25T08:35:08;4.45;;;2.00;;
65684;SDS011;52405;50.844;-1.062;2022-08-25T08:37:34;6.18;;;2.38;;
65684;SDS011;52405;50.844;-1.062;2022-08-25T08:40:04;2.92;;;2.40;;
65684;SDS011;52405;50.844;-1.062;2022-08-25T08:45:20;4.15;;;2.95;;
65684;SDS011;52405;50.844;-1.062;2022-08-25T08:51:23;4.78;;;2.45;;
65684;SDS011;52405;50.844;-1.062;2022-08-25T08:55:58;3.60;;;2.25;;
65684;SDS011;52405;50.844;-1.062;2022-08-25T09:01:06;3.25;;;1.52;;
65684;SDS011;52405;50.844;-1.062;2022-08-25T09:03:41;3.47;;;2.88;;
65684;SDS011;52405;50.844;-1.062;2022-08-25T09:06:41;3.75;;;2.47;;
65684;SDS011;52405;50.844;-1.062;2022-08-25T09:09:10;3.97;;;2.20;;
65684;SDS011;52405;50.844;-1.062;2022-08-25T09:11:57;2.63;;;1.63;;
65684;SDS011;52405;50.844;-1.062;2022-08-25T09:17:24;2.30;;;0.98;;
65684;SDS011;52405;50.844;-1.062;2022-08-25T09:23:23;1.88;;;1.00;;
65684;SDS011;52405;50.844;-1.062;2022-08-25T09:28:49;4.18;;;0.85;;
65684;SDS011;52405;50.844;-1.062;2022-08-25T09:31:23;2.35;;;0.90;;
65684;SDS011;52405;50.844;-1.062;2022-08-25T09:33:52;1.45;;;0.88;;
65684;SDS011;52405;50.844;-1.062;2022-08-25T09:36:21;1.52;;;0.90;;
65684;SDS011;52405;50.844;-1.062;2022-08-25T09:38:47;2.50;;;1.08;;
65684;SDS011;52405;50.844;-1.062;2022-08-25T09:41:14;5.05;;;1.00;;
65684;SDS011;52405;50.844;-1.062;2022-08-25T09:43:43;19.33;;;4.10;;
65684;SDS011;52405;50.844;-1.062;2022-08-25T09:46:22;18.77;;;2.67;;
65684;SDS011;52405;50.844;-1.062;2022-08-25T09:48:53;9.38;;;3.50;;
65684;SDS011;52405;50.844;-1.062;2022-08-25T09:53:50;5.50;;;4.05;;
65684;SDS011;52405;50.844;-1.062;2022-08-25T09:56:20;9.18;;;4.97;;
65684;SDS011;52405;50.844;-1.062;2022-08-25T09:58:48;7.32;;;2.38;;
65684;SDS011;52405;50.844;-1.062;2022-08-25T10:01:15;8.50;;;3.03;;
65684;SDS011;52405;50.844;-1.062;2022-08-25T10:03:53;10.95;;;2.72;;
65684;SDS011;52405;50.844;-1.062;2022-08-25T10:06:19;3.95;;;2.33;;
65684;SDS011;52405;50.844;-1.062;2022-08-25T10:11:13;2.75;;;1.95;;
65684;SDS011;52405;50.844;-1.062;2022-08-25T10:13:59;7.43;;;3.17;;
65684;SDS011;52405;50.844;-1.062;2022-08-25T10:16:28;4.50;;;1.85;;
65684;SDS011;52405;50.844;-1.062;2022-08-25T10:19:38;3.15;;;1.58;;
65684;SDS011;52405;50.844;-1.062;2022-08-25T10:22:03;3.05;;;1.48;;
65684;SDS011;52405;50.844;-1.062;2022-08-25T10:24:32;1.90;;;1.33;;
65684;SDS011;52405;50.844;-1.062;2022-08-25T10:35:26;1.40;;;1.30;;
65684;SDS011;52405;50.844;-1.062;2022-08-25T10:38:03;3.20;;;1.55;;
65684;SDS011;52405;50.844;-1.062;2022-08-25T10:40:44;3.90;;;1.42;;
65684;SDS011;52405;50.844;-1.062;2022-08-25T10:43:29;1.73;;;1.23;;
65684;SDS011;52405;50.844;-1.062;2022-08-25T11:00:35;1.35;;;1.20;;
65684;SDS011;52405;50.844;-1.062;2022-08-25T11:08:15;2.55;;;1.55;;
65684;SDS011;52405;50.844;-1.062;2022-08-25T11:10:59;4.13;;;1.30;;
65684;SDS011;52405;50.844;-1.062;2022-08-25T11:13:37;1.45;;;1.35;;
65684;SDS011;52405;50.844;-1.062;2022-08-25T11:16:16;0.57;;;0.57;;
65684;SDS011;52405;50.844;-1.062;2022-08-25T11:18:56;0.68;;;0.40;;
65684;SDS011;52405;50.844;-1.062;2022-08-25T11:21:45;4.55;;;2.33;;
65684;SDS011;52405;50.844;-1.062;2022-08-25T11:24:31;4.50;;;3.00;;
65684;SDS011;52405;50.844;-1.062;2022-08-25T11:27:05;5.22;;;2.97;;
65684;SDS011;52405;50.844;-1.062;2022-08-25T11:29:36;2.13;;;1.70;;
65684;SDS011;52405;50.844;-1.062;2022-08-25T11:32:05;4.22;;;2.65;;
65684;SDS011;52405;50.844;-1.062;2022-08-25T11:34:32;1.10;;;1.00;;
65684;SDS011;52405;50.844;-1.062;2022-08-25T11:37:19;2.88;;;1.30;;
65684;SDS011;52405;50.844;-1.062;2022-08-25T11:50:55;1.38;;;1.00;;
65684;SDS011;52405;50.844;-1.062;2022-08-25T11:55:52;3.42;;;1.08;;
65684;SDS011;52405;50.844;-1.062;2022-08-25T11:58:36;1.40;;;0.80;;
65684;SDS011;52405;50.844;-1.062;2022-08-25T12:01:10;1.10;;;0.90;;
65684;SDS011;52405;50.844;-1.062;2022-08-25T12:09:31;1.90;;;0.90;;
65684;SDS011;52405;50.844;-1.062;2022-08-25T12:11:58;1.95;;;1.45;;
65684;SDS011;52405;50.844;-1.062;2022-08-25T12:14:43;6.70;;;2.15;;
65684;SDS011;52405;50.844;-1.062;2022-08-25T12:17:20;2.35;;;1.80;;
65684;SDS011;52405;50.844;-1.062;2022-08-25T12:19:53;1.60;;;1.50;;
65684;SDS011;52405;50.844;-1.062;2022-08-25T12:35:55;5.25;;;3.40;;
65684;SDS011;52405;50.844;-1.062;2022-08-25T12:38:31;3.65;;;2.78;;
65684;SDS011;52405;50.844;-1.062;2022-08-25T12:41:02;15.63;;;6.70;;
65684;SDS011;52405;50.844;-1.062;2022-08-25T12:43:46;18.95;;;9.52;;
65684;SDS011;52405;50.844;-1.062;2022-08-25T12:51:26;39.45;;;20.58;;
65684;SDS011;52405;50.844;-1.062;2022-08-25T12:54:16;62.92;;;34.10;;
65684;SDS011;52405;50.844;-1.062;2022-08-25T12:57:04;8.18;;;5.88;;
65684;SDS011;52405;50.844;-1.062;2022-08-25T12:59:49;16.13;;;9.05;;
65684;SDS011;52405;50.844;-1.062;2022-08-25T13:13:19;25.20;;;15.63;;
65684;SDS011;52405;50.844;-1.062;2022-08-25T13:15:57;12.25;;;7.63;;
65684;SDS011;52405;50.844;-1.062;2022-08-25T13:18:34;10.75;;;8.02;;
65684;SDS011;52405;50.844;-1.062;2022-08-25T13:21:18;23.00;;;12.68;;
65684;SDS011;52405;50.844;-1.062;2022-08-25T13:23:49;10.10;;;6.20;;
65684;SDS011;52405;50.844;-1.062;2022-08-25T13:26:28;14.80;;;7.85;;
65684;SDS011;52405;50.844;-1.062;2022-08-25T13:29:12;11.23;;;8.75;;
65684;SDS011;52405;50.844;-1.062;2022-08-25T13:32:05;11.23;;;6.97;;
65684;SDS011;52405;50.844;-1.062;2022-08-25T13:34:34;8.82;;;6.43;;
65684;SDS011;52405;50.844;-1.062;2022-08-25T13:39:49;14.68;;;8.88;;
65684;SDS011;52405;50.844;-1.062;2022-08-25T13:42:15;12.93;;;8.95;;
65684;SDS011;52405;50.844;-1.062;2022-08-25T13:44:41;18.77;;;10.85;;
65684;SDS011;52405;50.844;-1.062;2022-08-25T13:47:12;17.38;;;11.27;;
65684;SDS011;52405;50.844;-1.062;2022-08-25T13:50:06;16.23;;;10.98;;
65684;SDS011;52405;50.844;-1.062;2022-08-25T13:52:47;16.05;;;11.40;;
65684;SDS011;52405;50.844;-1.062;2022-08-25T13:55:23;22.77;;;12.48;;
65684;SDS011;52405;50.844;-1.062;2022-08-25T13:57:53;16.48;;;11.85;;
65684;SDS011;52405;50.844;-1.062;2022-08-25T14:00:25;16.63;;;12.48;;
65684;SDS011;52405;50.844;-1.062;2022-08-25T14:03:02;15.32;;;10.63;;
65684;SDS011;52405;50.844;-1.062;2022-08-25T14:05:39;13.88;;;10.15;;
65684;SDS011;52405;50.844;-1.062;2022-08-25T14:08:23;17.60;;;11.13;;
65684;SDS011;52405;50.844;-1.062;2022-08-25T14:11:11;16.80;;;10.35;;
65684;SDS011;52405;50.844;-1.062;2022-08-25T14:13:40;21.55;;;12.48;;
65684;SDS011;52405;50.844;-1.062;2022-08-25T14:16:17;16.38;;;10.85;;
65684;SDS011;52405;50.844;-1.062;2022-08-25T14:18:49;17.05;;;10.95;;
65684;SDS011;52405;50.844;-1.062;2022-08-25T14:21:24;19.10;;;11.88;;
65684;SDS011;52405;50.844;-1.062;2022-08-25T14:23:55;16.03;;;11.63;;
65684;SDS011;52405;50.844;-1.062;2022-08-25T14:26:21;16.58;;;10.93;;
65684;SDS011;52405;50.844;-1.062;2022-08-25T14:28:47;16.25;;;11.23;;
65684;SDS011;52405;50.844;-1.062;2022-08-25T14:31:19;16.73;;;11.27;;
65684;SDS011;52405;50.844;-1.062;2022-08-25T14:33:53;14.55;;;11.07;;
65684;SDS011;52405;50.844;-1.062;2022-08-25T14:36:22;16.77;;;11.55;;
65684;SDS011;52405;50.844;-1.062;2022-08-25T14:38:48;21.30;;;12.45;;
65684;SDS011;52405;50.844;-1.062;2022-08-25T14:41:13;15.45;;;11.70;;
65684;SDS011;52405;50.844;-1.062;2022-08-25T14:43:39;19.60;;;13.38;;
65684;SDS011;52405;50.844;-1.062;2022-08-25T14:46:07;20.85;;;12.80;;
65684;SDS011;52405;50.844;-1.062;2022-08-25T14:48:39;20.75;;;12.98;;
65684;SDS011;52405;50.844;-1.062;2022-08-25T14:51:08;17.98;;;13.15;;
65684;SDS011;52405;50.844;-1.062;2022-08-25T14:53:35;20.75;;;12.68;;
65684;SDS011;52405;50.844;-1.062;2022-08-25T14:56:01;23.10;;;14.13;;
65684;SDS011;52405;50.844;-1.062;2022-08-25T14:58:27;16.10;;;12.27;;
65684;SDS011;52405;50.844;-1.062;2022-08-25T15:00:53;17.80;;;10.82;;
65684;SDS011;52405;50.844;-1.062;2022-08-25T15:03:22;15.48;;;11.00;;
65684;SDS011;52405;50.844;-1.062;2022-08-25T15:05:55;15.70;;;10.65;;
65684;SDS011;52405;50.844;-1.062;2022-08-25T15:08:21;15.55;;;11.18;;
65684;SDS011;52405;50.844;-1.062;2022-08-25T15:11:05;12.77;;;9.68;;
65684;SDS011;52405;50.844;-1.062;2022-08-25T15:13:30;15.52;;;10.45;;
65684;SDS011;52405;50.844;-1.062;2022-08-25T15:15:56;13.07;;;10.13;;
65684;SDS011;52405;50.844;-1.062;2022-08-25T15:18:22;12.75;;;9.55;;
65684;SDS011;52405;50.844;-1.062;2022-08-25T15:20:48;12.70;;;9.18;;
65684;SDS011;52405;50.844;-1.062;2022-08-25T15:23:14;14.63;;;10.35;;
65684;SDS011;52405;50.844;-1.062;2022-08-25T15:25:40;13.65;;;9.88;;
65684;SDS011;52405;50.844;-1.062;2022-08-25T15:28:07;13.95;;;9.75;;
65684;SDS011;52405;50.844;-1.062;2022-08-25T15:30:33;12.98;;;8.98;;
65684;SDS011;52405;50.844;-1.062;2022-08-25T15:33:00;11.80;;;7.68;;
65684;SDS011;52405;50.844;-1.062;2022-08-25T15:35:25;10.43;;;8.40;;
65684;SDS011;52405;50.844;-1.062;2022-08-25T15:37:51;26.70;;;17.63;;
65684;SDS011;52405;50.844;-1.062;2022-08-25T15:40:17;12.77;;;9.02;;
65684;SDS011;52405;50.844;-1.062;2022-08-25T15:42:43;16.80;;;10.88;;
65684;SDS011;52405;50.844;-1.062;2022-08-25T15:45:09;12.45;;;9.20;;
65684;SDS011;52405;50.844;-1.062;2022-08-25T15:47:35;11.63;;;8.13;;
65684;SDS011;52405;50.844;-1.062;2022-08-25T15:50:06;8.88;;;7.43;;
65684;SDS011;52405;50.844;-1.062;2022-08-25T15:52:38;10.52;;;8.00;;
65684;SDS011;52405;50.844;-1.062;2022-08-25T15:55:04;10.50;;;8.30;;
65684;SDS011;52405;50.844;-1.062;2022-08-25T15:57:29;9.93;;;7.65;;
65684;SDS011;52405;50.844;-1.062;2022-08-25T15:59:55;10.65;;;8.55;;
65684;SDS011;52405;50.844;-1.062;2022-08-25T16:02:21;11.02;;;8.38;;
65684;SDS011;52405;50.844;-1.062;2022-08-25T16:04:47;10.23;;;7.97;;
65684;SDS011;52405;50.844;-1.062;2022-08-25T16:07:12;9.25;;;7.90;;
65684;SDS011;52405;50.844;-1.062;2022-08-25T16:09:38;11.30;;;8.05;;
65684;SDS011;52405;50.844;-1.062;2022-08-25T16:12:04;9.55;;;7.95;;
65684;SDS011;52405;50.844;-1.062;2022-08-25T16:14:30;19.88;;;11.98;;
65684;SDS011;52405;50.844;-1.062;2022-08-25T16:16:55;12.43;;;9.23;;
65684;SDS011;52405;50.844;-1.062;2022-08-25T16:19:21;7.25;;;6.50;;
65684;SDS011;52405;50.844;-1.062;2022-08-25T16:21:46;9.02;;;6.75;;
65684;SDS011;52405;50.844;-1.062;2022-08-25T16:24:12;7.43;;;6.50;;
65684;SDS011;52405;50.844;-1.062;2022-08-25T16:26:38;8.90;;;6.82;;
65684;SDS011;52405;50.844;-1.062;2022-08-25T16:29:07;7.10;;;5.82;;
65684;SDS011;52405;50.844;-1.062;2022-08-25T16:31:33;8.63;;;6.22;;
65684;SDS011;52405;50.844;-1.062;2022-08-25T16:33:58;8.65;;;6.75;;
65684;SDS011;52405;50.844;-1.062;2022-08-25T16:36:25;8.25;;;5.82;;
65684;SDS011;52405;50.844;-1.062;2022-08-25T16:38:52;8.30;;;5.38;;
65684;SDS011;52405;50.844;-1.062;2022-08-25T16:41:20;5.95;;;5.45;;
65684;SDS011;52405;50.844;-1.062;2022-08-25T16:43:47;9.50;;;5.45;;
65684;SDS011;52405;50.844;-1.062;2022-08-25T16:46:13;6.22;;;5.43;;